sensor_id;sensor_type;location;lat;lon;timestamp;P1;durP1;ratioP1;P2;durP2;ratioP2
21152;SDS011;10734;44.792;20.482;2023-02-28T00:02:22;41.30;;;22.73;;
21152;SDS011;10734;44.792;20.482;2023-02-28T00:04:49;40.78;;;22.15;;
21152;SDS011;10734;44.792;20.482;2023-02-28T00:07:19;40.10;;;22.05;;
21152;SDS011;10734;44.792;20.482;2023-02-28T00:09:45;37.05;;;21.95;;
21152;SDS011;10734;44.792;20.482;2023-02-28T00:12:12;41.60;;;23.65;;
21152;SDS011;10734;44.792;20.482;2023-02-28T00:14:38;38.72;;;21.83;;
21152;SDS011;10734;44.792;20.482;2023-02-28T00:17:05;41.47;;;25.02;;
21152;SDS011;10734;44.792;20.482;2023-02-28T00:19:31;38.03;;;22.35;;
21152;SDS011;10734;44.792;20.482;2023-02-28T00:21:57;43.22;;;24.38;;
21152;SDS011;10734;44.792;20.482;2023-02-28T00:24:24;38.67;;;23.40;;
21152;SDS011;10734;44.792;20.482;2023-02-28T00:26:50;44.08;;;25.73;;
21152;SDS011;10734;44.792;20.482;2023-02-28T00:29:17;45.00;;;26.00;;
21152;SDS011;10734;44.792;20.482;2023-02-28T00:31:43;36.22;;;23.05;;
21152;SDS011;10734;44.792;20.482;2023-02-28T00:34:10;40.42;;;23.17;;
21152;SDS011;10734;44.792;20.482;2023-02-28T00:36:38;37.08;;;21.88;;
21152;SDS011;10734;44.792;20.482;2023-02-28T00:39:07;44.42;;;24.95;;
21152;SDS011;10734;44.792;20.482;2023-02-28T00:41:33;41.75;;;24.75;;
21152;SDS011;10734;44.792;20.482;2023-02-28T00:44:00;39.97;;;23.10;;
21152;SDS011;10734;44.792;20.482;2023-02-28T00:46:26;45.15;;;24.98;;
21152;SDS011;10734;44.792;20.482;2023-02-28T00:48:52;41.75;;;24.52;;
21152;SDS011;10734;44.792;20.482;2023-02-28T00:51:19;40.75;;;23.55;;
21152;SDS011;10734;44.792;20.482;2023-02-28T00:53:45;45.65;;;24.10;;
21152;SDS011;10734;44.792;20.482;2023-02-28T00:56:12;45.00;;;26.10;;
21152;SDS011;10734;44.792;20.482;2023-02-28T00:58:39;46.92;;;24.95;;
21152;SDS011;10734;44.792;20.482;2023-02-28T01:01:06;43.22;;;23.65;;
21152;SDS011;10734;44.792;20.482;2023-02-28T01:03:33;43.22;;;25.40;;
21152;SDS011;10734;44.792;20.482;2023-02-28T01:05:59;40.20;;;23.90;;
21152;SDS011;10734;44.792;20.482;2023-02-28T01:08:26;46.92;;;25.58;;
21152;SDS011;10734;44.792;20.482;2023-02-28T01:10:53;43.45;;;25.13;;
21152;SDS011;10734;44.792;20.482;2023-02-28T01:13:19;45.40;;;25.33;;
21152;SDS011;10734;44.792;20.482;2023-02-28T01:15:49;51.17;;;25.92;;
21152;SDS011;10734;44.792;20.482;2023-02-28T01:18:17;37.97;;;20.27;;
21152;SDS011;10734;44.792;20.482;2023-02-28T01:20:44;45.90;;;25.58;;
21152;SDS011;10734;44.792;20.482;2023-02-28T01:23:12;45.20;;;24.70;;
21152;SDS011;10734;44.792;20.482;2023-02-28T01:25:38;43.95;;;24.88;;
21152;SDS011;10734;44.792;20.482;2023-02-28T01:28:05;45.03;;;25.48;;
21152;SDS011;10734;44.792;20.482;2023-02-28T01:30:32;45.33;;;24.70;;
21152;SDS011;10734;44.792;20.482;2023-02-28T01:32:59;44.65;;;24.70;;
21152;SDS011;10734;44.792;20.482;2023-02-28T01:35:25;44.38;;;25.40;;
21152;SDS011;10734;44.792;20.482;2023-02-28T01:37:52;43.30;;;24.58;;
21152;SDS011;10734;44.792;20.482;2023-02-28T01:40:19;44.97;;;25.65;;
21152;SDS011;10734;44.792;20.482;2023-02-28T01:42:45;44.80;;;25.67;;
21152;SDS011;10734;44.792;20.482;2023-02-28T01:45:20;44.50;;;25.77;;
21152;SDS011;10734;44.792;20.482;2023-02-28T01:47:48;44.63;;;24.60;;
21152;SDS011;10734;44.792;20.482;2023-02-28T01:50:23;41.05;;;23.15;;
21152;SDS011;10734;44.792;20.482;2023-02-28T01:52:50;47.17;;;24.85;;
21152;SDS011;10734;44.792;20.482;2023-02-28T01:55:18;43.97;;;24.67;;
21152;SDS011;10734;44.792;20.482;2023-02-28T01:57:46;46.40;;;24.77;;
21152;SDS011;10734;44.792;20.482;2023-02-28T02:00:15;39.10;;;21.38;;
21152;SDS011;10734;44.792;20.482;2023-02-28T02:02:43;44.50;;;23.25;;
21152;SDS011;10734;44.792;20.482;2023-02-28T02:05:12;42.20;;;23.90;;
21152;SDS011;10734;44.792;20.482;2023-02-28T02:07:40;41.05;;;23.15;;
21152;SDS011;10734;44.792;20.482;2023-02-28T02:10:21;45.63;;;25.20;;
21152;SDS011;10734;44.792;20.482;2023-02-28T02:15:30;45.00;;;23.95;;
21152;SDS011;10734;44.792;20.482;2023-02-28T02:18:00;43.78;;;24.30;;
21152;SDS011;10734;44.792;20.482;2023-02-28T02:20:32;41.78;;;23.52;;
21152;SDS011;10734;44.792;20.482;2023-02-28T02:25:43;51.03;;;25.77;;
21152;SDS011;10734;44.792;20.482;2023-02-28T02:33:32;43.55;;;24.30;;
21152;SDS011;10734;44.792;20.482;2023-02-28T02:36:18;48.58;;;25.63;;
21152;SDS011;10734;44.792;20.482;2023-02-28T02:39:06;52.55;;;26.83;;
21152;SDS011;10734;44.792;20.482;2023-02-28T02:46:48;47.58;;;26.55;;
21152;SDS011;10734;44.792;20.482;2023-02-28T02:49:22;42.75;;;24.98;;
21152;SDS011;10734;44.792;20.482;2023-02-28T02:51:50;51.92;;;26.27;;
21152;SDS011;10734;44.792;20.482;2023-02-28T02:54:18;41.03;;;23.92;;
21152;SDS011;10734;44.792;20.482;2023-02-28T02:56:47;48.30;;;25.33;;
21152;SDS011;10734;44.792;20.482;2023-02-28T02:59:16;46.03;;;25.02;;
21152;SDS011;10734;44.792;20.482;2023-02-28T03:01:48;43.45;;;24.50;;
21152;SDS011;10734;44.792;20.482;2023-02-28T03:04:17;48.58;;;25.20;;
21152;SDS011;10734;44.792;20.482;2023-02-28T03:06:44;50.70;;;25.52;;
21152;SDS011;10734;44.792;20.482;2023-02-28T03:09:11;51.13;;;27.45;;
21152;SDS011;10734;44.792;20.482;2023-02-28T03:11:37;48.80;;;25.92;;
21152;SDS011;10734;44.792;20.482;2023-02-28T03:14:17;44.78;;;24.48;;
21152;SDS011;10734;44.792;20.482;2023-02-28T03:24:36;46.67;;;25.23;;
21152;SDS011;10734;44.792;20.482;2023-02-28T03:27:09;50.72;;;25.50;;
21152;SDS011;10734;44.792;20.482;2023-02-28T03:29:39;47.80;;;25.55;;
21152;SDS011;10734;44.792;20.482;2023-02-28T03:32:10;47.50;;;25.42;;
21152;SDS011;10734;44.792;20.482;2023-02-28T03:34:42;51.92;;;26.73;;
21152;SDS011;10734;44.792;20.482;2023-02-28T03:37:13;30.77;;;17.05;;
21152;SDS011;10734;44.792;20.482;2023-02-28T03:39:45;48.30;;;25.10;;
21152;SDS011;10734;44.792;20.482;2023-02-28T03:42:14;44.92;;;23.90;;
21152;SDS011;10734;44.792;20.482;2023-02-28T03:44:42;44.05;;;23.73;;
21152;SDS011;10734;44.792;20.482;2023-02-28T03:47:16;45.03;;;24.98;;
21152;SDS011;10734;44.792;20.482;2023-02-28T03:49:49;49.42;;;25.90;;
21152;SDS011;10734;44.792;20.482;2023-02-28T03:52:17;46.63;;;23.35;;
21152;SDS011;10734;44.792;20.482;2023-02-28T03:54:45;41.72;;;23.50;;
21152;SDS011;10734;44.792;20.482;2023-02-28T03:57:25;46.30;;;25.13;;
21152;SDS011;10734;44.792;20.482;2023-02-28T03:59:57;46.38;;;23.85;;
21152;SDS011;10734;44.792;20.482;2023-02-28T04:04:51;47.92;;;22.83;;
21152;SDS011;10734;44.792;20.482;2023-02-28T04:07:18;49.03;;;23.42;;
21152;SDS011;10734;44.792;20.482;2023-02-28T04:09:44;44.55;;;23.90;;
21152;SDS011;10734;44.792;20.482;2023-02-28T04:12:11;49.25;;;24.73;;
21152;SDS011;10734;44.792;20.482;2023-02-28T04:14:37;49.42;;;25.25;;
21152;SDS011;10734;44.792;20.482;2023-02-28T04:17:04;41.05;;;23.58;;
21152;SDS011;10734;44.792;20.482;2023-02-28T04:19:31;40.65;;;22.48;;
21152;SDS011;10734;44.792;20.482;2023-02-28T04:21:57;42.55;;;22.98;;
21152;SDS011;10734;44.792;20.482;2023-02-28T04:24:25;44.55;;;23.92;;
21152;SDS011;10734;44.792;20.482;2023-02-28T04:26:52;43.47;;;24.95;;
21152;SDS011;10734;44.792;20.482;2023-02-28T04:29:20;48.00;;;25.58;;
21152;SDS011;10734;44.792;20.482;2023-02-28T04:31:47;43.08;;;24.40;;
21152;SDS011;10734;44.792;20.482;2023-02-28T04:34:14;42.58;;;23.05;;
21152;SDS011;10734;44.792;20.482;2023-02-28T04:36:40;44.08;;;24.42;;
21152;SDS011;10734;44.792;20.482;2023-02-28T04:39:07;56.28;;;29.17;;
21152;SDS011;10734;44.792;20.482;2023-02-28T04:41:34;46.03;;;25.90;;
21152;SDS011;10734;44.792;20.482;2023-02-28T04:44:00;49.50;;;26.08;;
21152;SDS011;10734;44.792;20.482;2023-02-28T04:46:27;45.38;;;23.48;;
21152;SDS011;10734;44.792;20.482;2023-02-28T04:48:53;45.75;;;24.65;;
21152;SDS011;10734;44.792;20.482;2023-02-28T04:51:20;41.83;;;22.08;;
21152;SDS011;10734;44.792;20.482;2023-02-28T04:53:47;44.10;;;22.45;;
21152;SDS011;10734;44.792;20.482;2023-02-28T04:56:15;42.10;;;22.38;;
21152;SDS011;10734;44.792;20.482;2023-02-28T04:58:42;42.63;;;22.83;;
21152;SDS011;10734;44.792;20.482;2023-02-28T05:01:25;41.40;;;22.92;;
21152;SDS011;10734;44.792;20.482;2023-02-28T05:03:53;43.92;;;24.45;;
21152;SDS011;10734;44.792;20.482;2023-02-28T05:06:20;41.65;;;21.95;;
21152;SDS011;10734;44.792;20.482;2023-02-28T05:08:47;39.63;;;23.00;;
21152;SDS011;10734;44.792;20.482;2023-02-28T05:11:16;40.92;;;22.13;;
21152;SDS011;10734;44.792;20.482;2023-02-28T05:13:42;38.25;;;21.05;;
21152;SDS011;10734;44.792;20.482;2023-02-28T05:16:09;38.47;;;21.70;;
21152;SDS011;10734;44.792;20.482;2023-02-28T05:18:36;41.67;;;22.55;;
21152;SDS011;10734;44.792;20.482;2023-02-28T05:21:02;34.97;;;20.52;;
21152;SDS011;10734;44.792;20.482;2023-02-28T05:23:29;38.92;;;21.08;;
21152;SDS011;10734;44.792;20.482;2023-02-28T05:25:56;32.40;;;18.70;;
21152;SDS011;10734;44.792;20.482;2023-02-28T05:28:22;34.00;;;18.17;;
21152;SDS011;10734;44.792;20.482;2023-02-28T05:30:49;50.40;;;26.83;;
21152;SDS011;10734;44.792;20.482;2023-02-28T05:33:15;39.95;;;22.92;;
21152;SDS011;10734;44.792;20.482;2023-02-28T05:35:42;37.42;;;20.23;;
21152;SDS011;10734;44.792;20.482;2023-02-28T05:38:08;35.50;;;20.23;;
21152;SDS011;10734;44.792;20.482;2023-02-28T05:40:35;34.42;;;19.35;;
21152;SDS011;10734;44.792;20.482;2023-02-28T05:43:03;36.67;;;21.05;;
21152;SDS011;10734;44.792;20.482;2023-02-28T05:45:30;39.60;;;21.83;;
21152;SDS011;10734;44.792;20.482;2023-02-28T05:47:56;37.92;;;20.85;;
21152;SDS011;10734;44.792;20.482;2023-02-28T05:50:23;41.03;;;22.73;;
21152;SDS011;10734;44.792;20.482;2023-02-28T05:52:50;36.72;;;20.65;;
21152;SDS011;10734;44.792;20.482;2023-02-28T05:55:16;44.65;;;23.58;;
21152;SDS011;10734;44.792;20.482;2023-02-28T05:57:43;42.60;;;22.83;;
21152;SDS011;10734;44.792;20.482;2023-02-28T06:00:10;38.15;;;21.42;;
21152;SDS011;10734;44.792;20.482;2023-02-28T06:02:38;41.60;;;23.50;;
21152;SDS011;10734;44.792;20.482;2023-02-28T06:05:04;45.00;;;25.42;;
21152;SDS011;10734;44.792;20.482;2023-02-28T06:07:31;46.97;;;26.10;;
21152;SDS011;10734;44.792;20.482;2023-02-28T06:09:57;48.00;;;25.42;;
21152;SDS011;10734;44.792;20.482;2023-02-28T06:12:24;44.40;;;24.10;;
21152;SDS011;10734;44.792;20.482;2023-02-28T06:14:50;51.60;;;25.83;;
21152;SDS011;10734;44.792;20.482;2023-02-28T06:17:17;46.35;;;24.20;;
21152;SDS011;10734;44.792;20.482;2023-02-28T06:19:43;48.40;;;25.88;;
21152;SDS011;10734;44.792;20.482;2023-02-28T06:22:10;49.53;;;25.95;;
21152;SDS011;10734;44.792;20.482;2023-02-28T06:24:36;50.80;;;24.85;;
21152;SDS011;10734;44.792;20.482;2023-02-28T06:27:03;50.10;;;26.08;;
21152;SDS011;10734;44.792;20.482;2023-02-28T06:29:32;54.40;;;26.88;;
21152;SDS011;10734;44.792;20.482;2023-02-28T06:31:58;44.10;;;22.70;;
21152;SDS011;10734;44.792;20.482;2023-02-28T06:34:25;43.72;;;23.45;;
21152;SDS011;10734;44.792;20.482;2023-02-28T06:36:52;42.85;;;22.45;;
21152;SDS011;10734;44.792;20.482;2023-02-28T06:39:18;45.90;;;23.75;;
21152;SDS011;10734;44.792;20.482;2023-02-28T06:41:45;43.00;;;23.02;;
21152;SDS011;10734;44.792;20.482;2023-02-28T06:44:21;46.00;;;23.35;;
21152;SDS011;10734;44.792;20.482;2023-02-28T06:46:48;45.75;;;24.60;;
21152;SDS011;10734;44.792;20.482;2023-02-28T06:49:14;49.05;;;26.67;;
21152;SDS011;10734;44.792;20.482;2023-02-28T06:51:42;50.13;;;26.10;;
21152;SDS011;10734;44.792;20.482;2023-02-28T06:54:11;53.03;;;26.98;;
21152;SDS011;10734;44.792;20.482;2023-02-28T06:56:38;51.50;;;27.35;;
21152;SDS011;10734;44.792;20.482;2023-02-28T06:59:04;52.22;;;26.83;;
21152;SDS011;10734;44.792;20.482;2023-02-28T07:01:31;47.50;;;26.65;;
21152;SDS011;10734;44.792;20.482;2023-02-28T07:03:59;47.33;;;26.58;;
21152;SDS011;10734;44.792;20.482;2023-02-28T07:06:26;44.00;;;24.40;;
21152;SDS011;10734;44.792;20.482;2023-02-28T07:08:53;43.67;;;23.38;;
21152;SDS011;10734;44.792;20.482;2023-02-28T07:11:21;40.92;;;23.10;;
21152;SDS011;10734;44.792;20.482;2023-02-28T07:13:49;49.13;;;25.50;;
21152;SDS011;10734;44.792;20.482;2023-02-28T07:16:15;45.72;;;25.52;;
21152;SDS011;10734;44.792;20.482;2023-02-28T07:18:42;49.42;;;26.38;;
21152;SDS011;10734;44.792;20.482;2023-02-28T07:21:09;51.50;;;26.65;;
21152;SDS011;10734;44.792;20.482;2023-02-28T07:23:36;45.35;;;25.60;;
21152;SDS011;10734;44.792;20.482;2023-02-28T07:26:04;44.80;;;25.55;;
21152;SDS011;10734;44.792;20.482;2023-02-28T07:28:31;54.58;;;29.45;;
21152;SDS011;10734;44.792;20.482;2023-02-28T07:31:02;44.60;;;25.85;;
21152;SDS011;10734;44.792;20.482;2023-02-28T07:33:29;44.97;;;25.52;;
21152;SDS011;10734;44.792;20.482;2023-02-28T07:36:15;42.88;;;22.70;;
21152;SDS011;10734;44.792;20.482;2023-02-28T07:38:46;45.30;;;24.73;;
21152;SDS011;10734;44.792;20.482;2023-02-28T07:41:22;46.63;;;26.40;;
21152;SDS011;10734;44.792;20.482;2023-02-28T07:43:49;43.13;;;24.00;;
21152;SDS011;10734;44.792;20.482;2023-02-28T07:46:16;48.53;;;24.90;;
21152;SDS011;10734;44.792;20.482;2023-02-28T07:48:43;45.08;;;24.92;;
21152;SDS011;10734;44.792;20.482;2023-02-28T07:51:10;46.75;;;27.08;;
21152;SDS011;10734;44.792;20.482;2023-02-28T07:53:36;44.17;;;26.38;;
21152;SDS011;10734;44.792;20.482;2023-02-28T07:56:03;45.95;;;24.25;;
21152;SDS011;10734;44.792;20.482;2023-02-28T07:58:30;44.92;;;26.08;;
21152;SDS011;10734;44.792;20.482;2023-02-28T08:00:57;47.05;;;24.75;;
21152;SDS011;10734;44.792;20.482;2023-02-28T08:03:24;43.42;;;25.10;;
21152;SDS011;10734;44.792;20.482;2023-02-28T08:05:50;49.50;;;24.08;;
21152;SDS011;10734;44.792;20.482;2023-02-28T08:08:18;47.67;;;25.15;;
21152;SDS011;10734;44.792;20.482;2023-02-28T08:10:45;42.63;;;24.35;;
21152;SDS011;10734;44.792;20.482;2023-02-28T08:13:11;44.42;;;26.38;;
21152;SDS011;10734;44.792;20.482;2023-02-28T08:15:39;47.38;;;26.30;;
21152;SDS011;10734;44.792;20.482;2023-02-28T08:18:06;49.40;;;27.33;;
21152;SDS011;10734;44.792;20.482;2023-02-28T08:20:33;48.20;;;26.40;;
21152;SDS011;10734;44.792;20.482;2023-02-28T08:23:00;48.65;;;29.17;;
21152;SDS011;10734;44.792;20.482;2023-02-28T08:25:26;44.17;;;26.52;;
21152;SDS011;10734;44.792;20.482;2023-02-28T08:27:52;52.67;;;28.27;;
21152;SDS011;10734;44.792;20.482;2023-02-28T08:30:19;56.40;;;29.58;;
21152;SDS011;10734;44.792;20.482;2023-02-28T08:32:45;49.15;;;27.48;;
21152;SDS011;10734;44.792;20.482;2023-02-28T08:35:12;50.50;;;28.98;;
21152;SDS011;10734;44.792;20.482;2023-02-28T08:37:38;62.20;;;33.20;;
21152;SDS011;10734;44.792;20.482;2023-02-28T08:40:05;52.15;;;29.60;;
21152;SDS011;10734;44.792;20.482;2023-02-28T08:42:32;60.63;;;32.95;;
21152;SDS011;10734;44.792;20.482;2023-02-28T08:44:58;53.75;;;31.17;;
21152;SDS011;10734;44.792;20.482;2023-02-28T08:47:25;51.08;;;29.10;;
21152;SDS011;10734;44.792;20.482;2023-02-28T08:49:52;50.08;;;29.25;;
21152;SDS011;10734;44.792;20.482;2023-02-28T08:52:18;53.72;;;29.20;;
21152;SDS011;10734;44.792;20.482;2023-02-28T08:54:45;51.28;;;27.48;;
21152;SDS011;10734;44.792;20.482;2023-02-28T08:57:11;48.03;;;27.50;;
21152;SDS011;10734;44.792;20.482;2023-02-28T08:59:38;47.88;;;28.02;;
21152;SDS011;10734;44.792;20.482;2023-02-28T09:02:04;56.95;;;29.95;;
21152;SDS011;10734;44.792;20.482;2023-02-28T09:04:31;48.03;;;27.55;;
21152;SDS011;10734;44.792;20.482;2023-02-28T09:06:57;48.67;;;28.20;;
21152;SDS011;10734;44.792;20.482;2023-02-28T09:09:24;46.22;;;27.50;;
21152;SDS011;10734;44.792;20.482;2023-02-28T09:11:50;48.80;;;27.77;;
21152;SDS011;10734;44.792;20.482;2023-02-28T09:14:17;45.80;;;25.70;;
21152;SDS011;10734;44.792;20.482;2023-02-28T09:16:43;43.25;;;26.40;;
21152;SDS011;10734;44.792;20.482;2023-02-28T09:19:11;39.83;;;22.77;;
21152;SDS011;10734;44.792;20.482;2023-02-28T09:21:38;40.08;;;24.05;;
21152;SDS011;10734;44.792;20.482;2023-02-28T09:24:04;47.35;;;26.20;;
21152;SDS011;10734;44.792;20.482;2023-02-28T09:26:31;48.28;;;26.58;;
21152;SDS011;10734;44.792;20.482;2023-02-28T09:29:08;50.85;;;28.70;;
21152;SDS011;10734;44.792;20.482;2023-02-28T09:31:35;51.03;;;27.38;;
21152;SDS011;10734;44.792;20.482;2023-02-28T09:34:01;47.22;;;27.13;;
21152;SDS011;10734;44.792;20.482;2023-02-28T09:36:28;44.72;;;23.95;;
21152;SDS011;10734;44.792;20.482;2023-02-28T09:39:09;37.17;;;23.50;;
21152;SDS011;10734;44.792;20.482;2023-02-28T09:41:39;39.50;;;22.77;;
21152;SDS011;10734;44.792;20.482;2023-02-28T09:44:24;41.05;;;23.67;;
21152;SDS011;10734;44.792;20.482;2023-02-28T09:47:01;39.78;;;23.35;;
21152;SDS011;10734;44.792;20.482;2023-02-28T09:49:42;38.50;;;22.27;;
21152;SDS011;10734;44.792;20.482;2023-02-28T09:52:11;35.13;;;22.25;;
21152;SDS011;10734;44.792;20.482;2023-02-28T09:54:38;46.97;;;27.52;;
21152;SDS011;10734;44.792;20.482;2023-02-28T09:59:53;46.42;;;23.90;;
21152;SDS011;10734;44.792;20.482;2023-02-28T10:05:05;40.35;;;23.98;;
21152;SDS011;10734;44.792;20.482;2023-02-28T10:10:18;41.92;;;24.20;;
21152;SDS011;10734;44.792;20.482;2023-02-28T10:12:45;36.78;;;22.60;;
21152;SDS011;10734;44.792;20.482;2023-02-28T10:15:16;39.67;;;24.17;;
21152;SDS011;10734;44.792;20.482;2023-02-28T10:17:44;40.10;;;24.08;;
21152;SDS011;10734;44.792;20.482;2023-02-28T10:20:26;37.80;;;23.80;;
21152;SDS011;10734;44.792;20.482;2023-02-28T10:23:03;43.08;;;25.75;;
21152;SDS011;10734;44.792;20.482;2023-02-28T10:25:35;37.78;;;24.73;;
21152;SDS011;10734;44.792;20.482;2023-02-28T10:30:34;40.28;;;24.02;;
21152;SDS011;10734;44.792;20.482;2023-02-28T10:33:01;39.45;;;22.77;;
21152;SDS011;10734;44.792;20.482;2023-02-28T10:35:27;38.00;;;24.67;;
21152;SDS011;10734;44.792;20.482;2023-02-28T10:37:57;38.60;;;24.27;;
21152;SDS011;10734;44.792;20.482;2023-02-28T10:45:23;39.90;;;23.70;;
21152;SDS011;10734;44.792;20.482;2023-02-28T10:47:55;43.20;;;26.15;;
21152;SDS011;10734;44.792;20.482;2023-02-28T10:53:14;40.10;;;25.13;;
21152;SDS011;10734;44.792;20.482;2023-02-28T10:55:42;45.58;;;27.33;;
21152;SDS011;10734;44.792;20.482;2023-02-28T10:58:22;42.80;;;25.60;;
21152;SDS011;10734;44.792;20.482;2023-02-28T11:00:50;45.83;;;27.00;;
21152;SDS011;10734;44.792;20.482;2023-02-28T11:03:33;49.28;;;28.50;;
21152;SDS011;10734;44.792;20.482;2023-02-28T11:06:07;53.20;;;29.30;;
21152;SDS011;10734;44.792;20.482;2023-02-28T11:08:34;47.08;;;28.65;;
21152;SDS011;10734;44.792;20.482;2023-02-28T11:11:08;50.50;;;28.58;;
21152;SDS011;10734;44.792;20.482;2023-02-28T11:13:35;42.88;;;26.92;;
21152;SDS011;10734;44.792;20.482;2023-02-28T11:16:04;51.80;;;29.55;;
21152;SDS011;10734;44.792;20.482;2023-02-28T11:21:01;47.88;;;30.23;;
21152;SDS011;10734;44.792;20.482;2023-02-28T11:23:29;45.28;;;27.48;;
21152;SDS011;10734;44.792;20.482;2023-02-28T11:25:58;51.55;;;30.40;;
21152;SDS011;10734;44.792;20.482;2023-02-28T11:28:32;49.72;;;30.27;;
21152;SDS011;10734;44.792;20.482;2023-02-28T11:31:20;49.20;;;28.67;;
21152;SDS011;10734;44.792;20.482;2023-02-28T11:36:13;48.92;;;30.35;;
21152;SDS011;10734;44.792;20.482;2023-02-28T11:38:41;48.47;;;29.60;;
21152;SDS011;10734;44.792;20.482;2023-02-28T11:46:11;53.72;;;30.30;;
21152;SDS011;10734;44.792;20.482;2023-02-28T11:48:58;52.90;;;30.65;;
21152;SDS011;10734;44.792;20.482;2023-02-28T11:51:32;50.50;;;29.25;;
21152;SDS011;10734;44.792;20.482;2023-02-28T11:56:39;68.97;;;39.10;;
21152;SDS011;10734;44.792;20.482;2023-02-28T12:06:40;54.38;;;32.13;;
21152;SDS011;10734;44.792;20.482;2023-02-28T12:27:13;47.67;;;29.08;;
21152;SDS011;10734;44.792;20.482;2023-02-28T12:32:13;46.10;;;24.65;;
21152;SDS011;10734;44.792;20.482;2023-02-28T12:37:10;45.33;;;25.63;;
21152;SDS011;10734;44.792;20.482;2023-02-28T12:39:41;48.30;;;27.60;;
21152;SDS011;10734;44.792;20.482;2023-02-28T12:42:21;42.53;;;25.60;;
21152;SDS011;10734;44.792;20.482;2023-02-28T12:44:51;48.03;;;25.85;;
21152;SDS011;10734;44.792;20.482;2023-02-28T12:47:18;76.78;;;35.63;;
21152;SDS011;10734;44.792;20.482;2023-02-28T12:50:05;72.55;;;35.88;;
21152;SDS011;10734;44.792;20.482;2023-02-28T12:52:46;41.88;;;24.05;;
21152;SDS011;10734;44.792;20.482;2023-02-28T12:57:58;35.30;;;21.30;;
21152;SDS011;10734;44.792;20.482;2023-02-28T13:00:30;47.90;;;24.13;;
21152;SDS011;10734;44.792;20.482;2023-02-28T13:10:42;41.72;;;24.17;;
21152;SDS011;10734;44.792;20.482;2023-02-28T13:13:17;44.15;;;25.67;;
21152;SDS011;10734;44.792;20.482;2023-02-28T13:15:57;69.45;;;41.72;;
21152;SDS011;10734;44.792;20.482;2023-02-28T13:18:27;58.15;;;33.50;;
21152;SDS011;10734;44.792;20.482;2023-02-28T13:20:54;45.28;;;28.35;;
21152;SDS011;10734;44.792;20.482;2023-02-28T13:26:03;45.03;;;26.52;;
21152;SDS011;10734;44.792;20.482;2023-02-28T13:31:28;49.30;;;26.80;;
21152;SDS011;10734;44.792;20.482;2023-02-28T13:36:26;56.58;;;32.55;;
21152;SDS011;10734;44.792;20.482;2023-02-28T13:38:56;46.85;;;28.35;;
21152;SDS011;10734;44.792;20.482;2023-02-28T13:51:43;51.65;;;29.48;;
21152;SDS011;10734;44.792;20.482;2023-02-28T13:54:15;55.10;;;31.27;;
21152;SDS011;10734;44.792;20.482;2023-02-28T13:56:49;52.25;;;29.98;;
21152;SDS011;10734;44.792;20.482;2023-02-28T13:59:59;53.15;;;32.80;;
21152;SDS011;10734;44.792;20.482;2023-02-28T14:02:26;51.10;;;29.45;;
21152;SDS011;10734;44.792;20.482;2023-02-28T14:07:26;48.13;;;28.50;;
21152;SDS011;10734;44.792;20.482;2023-02-28T14:10:04;46.15;;;27.67;;
21152;SDS011;10734;44.792;20.482;2023-02-28T14:18:02;40.60;;;24.42;;
21152;SDS011;10734;44.792;20.482;2023-02-28T14:20:30;36.50;;;23.90;;
21152;SDS011;10734;44.792;20.482;2023-02-28T14:25:40;35.33;;;21.77;;
21152;SDS011;10734;44.792;20.482;2023-02-28T14:31:15;36.40;;;21.55;;
21152;SDS011;10734;44.792;20.482;2023-02-28T14:33:49;35.35;;;20.77;;
21152;SDS011;10734;44.792;20.482;2023-02-28T14:36:27;49.85;;;29.35;;
21152;SDS011;10734;44.792;20.482;2023-02-28T14:38:57;40.75;;;25.98;;
21152;SDS011;10734;44.792;20.482;2023-02-28T14:43:58;35.75;;;20.60;;
21152;SDS011;10734;44.792;20.482;2023-02-28T14:46:26;38.08;;;20.33;;
21152;SDS011;10734;44.792;20.482;2023-02-28T14:48:54;40.13;;;23.02;;
21152;SDS011;10734;44.792;20.482;2023-02-28T14:51:21;42.70;;;25.48;;
21152;SDS011;10734;44.792;20.482;2023-02-28T14:53:50;44.20;;;26.45;;
21152;SDS011;10734;44.792;20.482;2023-02-28T14:56:24;42.33;;;25.45;;
21152;SDS011;10734;44.792;20.482;2023-02-28T14:58:54;38.67;;;23.13;;
21152;SDS011;10734;44.792;20.482;2023-02-28T15:01:21;39.40;;;22.33;;
21152;SDS011;10734;44.792;20.482;2023-02-28T15:03:48;37.53;;;21.48;;
21152;SDS011;10734;44.792;20.482;2023-02-28T15:06:23;37.92;;;23.58;;
21152;SDS011;10734;44.792;20.482;2023-02-28T15:11:56;37.17;;;23.52;;
21152;SDS011;10734;44.792;20.482;2023-02-28T15:14:23;31.25;;;20.30;;
21152;SDS011;10734;44.792;20.482;2023-02-28T15:16:52;29.65;;;18.65;;
21152;SDS011;10734;44.792;20.482;2023-02-28T15:19:24;23.05;;;15.38;;
21152;SDS011;10734;44.792;20.482;2023-02-28T15:22:01;33.90;;;20.48;;
21152;SDS011;10734;44.792;20.482;2023-02-28T15:24:36;29.52;;;17.52;;
21152;SDS011;10734;44.792;20.482;2023-02-28T15:27:04;27.83;;;17.88;;
21152;SDS011;10734;44.792;20.482;2023-02-28T15:29:33;35.97;;;24.25;;
21152;SDS011;10734;44.792;20.482;2023-02-28T15:32:04;37.83;;;22.33;;
21152;SDS011;10734;44.792;20.482;2023-02-28T15:34:42;37.40;;;22.42;;
21152;SDS011;10734;44.792;20.482;2023-02-28T15:39:58;33.17;;;21.92;;
21152;SDS011;10734;44.792;20.482;2023-02-28T15:42:27;31.23;;;19.38;;
21152;SDS011;10734;44.792;20.482;2023-02-28T15:44:54;32.60;;;20.73;;
21152;SDS011;10734;44.792;20.482;2023-02-28T15:47:25;30.67;;;18.58;;
21152;SDS011;10734;44.792;20.482;2023-02-28T15:49:53;30.30;;;18.13;;
21152;SDS011;10734;44.792;20.482;2023-02-28T15:52:21;34.60;;;19.95;;
21152;SDS011;10734;44.792;20.482;2023-02-28T15:54:50;29.40;;;18.70;;
21152;SDS011;10734;44.792;20.482;2023-02-28T15:57:23;26.13;;;16.38;;
21152;SDS011;10734;44.792;20.482;2023-02-28T15:59:52;27.75;;;16.27;;
21152;SDS011;10734;44.792;20.482;2023-02-28T16:02:21;36.00;;;20.50;;
21152;SDS011;10734;44.792;20.482;2023-02-28T16:07:37;31.85;;;19.95;;
21152;SDS011;10734;44.792;20.482;2023-02-28T16:10:04;33.05;;;19.77;;
21152;SDS011;10734;44.792;20.482;2023-02-28T16:12:31;32.22;;;19.60;;
21152;SDS011;10734;44.792;20.482;2023-02-28T16:14:59;33.58;;;20.63;;
21152;SDS011;10734;44.792;20.482;2023-02-28T16:17:29;41.28;;;22.95;;
21152;SDS011;10734;44.792;20.482;2023-02-28T16:19:56;32.20;;;19.17;;
21152;SDS011;10734;44.792;20.482;2023-02-28T16:22:22;35.55;;;18.65;;
21152;SDS011;10734;44.792;20.482;2023-02-28T16:24:49;44.60;;;24.63;;
21152;SDS011;10734;44.792;20.482;2023-02-28T16:27:17;42.33;;;24.10;;
21152;SDS011;10734;44.792;20.482;2023-02-28T16:29:44;46.50;;;25.38;;
21152;SDS011;10734;44.792;20.482;2023-02-28T16:32:12;40.80;;;24.25;;
21152;SDS011;10734;44.792;20.482;2023-02-28T16:34:40;40.42;;;22.17;;
21152;SDS011;10734;44.792;20.482;2023-02-28T16:37:11;43.40;;;24.20;;
21152;SDS011;10734;44.792;20.482;2023-02-28T16:39:37;46.92;;;25.98;;
21152;SDS011;10734;44.792;20.482;2023-02-28T16:42:04;44.53;;;24.98;;